KBKW/BKW METAR and TAF weather

Enter ICAO airport designator
Station Type Date Time Source
KBKW METAR 2018/07/21 03:51 UTC NOAA

KBKW 210351Z AUTO 13006KT 10SM -RA OVC095 17/14 A3006 RMK AO2 RAE0258B20 SLP147 P0000 T01670139 TSNO


Station Type Date Time Source
KBKW Decoded METAR 2018/07/21 03:51 UTC NOAA

RALEIGH COUNTY MEM AIRPORT , WV, United States (KBKW) 37-48N 081-07W 764M
Jul 20, 2018 - 11:51 PM EDT / 2018.07.21 0351 UTC
Wind: from the SE (130 degrees) at 7 MPH (6 KT):0
Visibility: 10 mile(s):0
Sky conditions: overcast
Weather: light rain
Precipitation last hour: A trace
Temperature: 62.1 F (16.7 C)
Dew Point: 57.0 F (13.9 C)
Relative Humidity: 83%
Pressure (altimeter): 30.06 in. Hg (1017 hPa)
ob: KBKW 210351Z AUTO 13006KT 10SM -RA OVC095 17/14 A3006 RMK AO2 RAE0258B20 SLP147 P0000 T01670139 TSNO
cycle: 4

Station Type Date Time Source
KBKW TAF 2018/07/21 02:28 UTC NOAA

TAF
AMD KBKW 210226Z 2102/2124 15008KT P6SM BKN040
TEMPO 2102/2106 4SM SHRA BR OVC025
FM210600 15010G17KT P6SM VCTS SCT050CB
FM211000 15010G17KT P6SM VCTS BKN035CB
FM211500 17007KT 6SM -SHRA VCTS BKN035CB


Example: see airport list